LIRQ Airport Information

Runway Information
Runway 05 Length 5425 ft width 98 ft
Elevation 123 ft Threshold 492 ft Heading 48
Runway 23 Length 5425 ft Width 98 ft
Elevation 132 ft Threshold 2287 ft Heading 228
Airport Frequencies
Type APP Name APP Frequency 126.075 MHZ
Type ATIS Name ATIS Frequency 129.35 MHZ
Type TWR Name FIRENZE TW Frequency 118.3 MHZ
Airport Navaids
Type VOR-DME Name Peretola Frequency 112500 KHZ
Airport Weather Information & NOTAM
ADDS - METARS form results

(0909 UTC 24 June 2021)
Data provider http://aviationweather.gov/metar/data/
 
METAR text: LIRQ 240850Z VRB03KT CAVOK 28/18 Q1017
Conditions at: LIRQ (FIRENZE/PERETOLA, IT) observed 0850 UTC 24 June 2021
Temperature: 28.0°C (82°F)
Dewpoint: 18.0°C (64°F) [RH = 55%]
Pressure (altimeter): 30.03 inches Hg (1017.0 mb)
Winds: variable direction winds at 3 MPH (3 knots; 1.5 m/s)
Visibility: 6 or more miles (10+ km)
Ceiling: ceiling and visibility are OK
Clouds: unknown
Weather: no significant weather observed at this time

METAR text: LIRQ 240820Z VRB03KT CAVOK 27/19 Q1017
Conditions at: LIRQ (FIRENZE/PERETOLA, IT) observed 0820 UTC 24 June 2021
Temperature: 27.0°C (81°F)
Dewpoint: 19.0°C (66°F) [RH = 62%]
Pressure (altimeter): 30.03 inches Hg (1017.0 mb)
Winds: variable direction winds at 3 MPH (3 knots; 1.5 m/s)
Visibility: 6 or more miles (10+ km)
Ceiling: ceiling and visibility are OK
Clouds: unknown
Weather: no significant weather observed at this time

Forecast for: LIRQ (FIRENZE/PERETOLA, IT)
Text: TAF LIRQ 240500Z 2406/2506 VRB05KT 9999 SCT040
Forecast period: 0600 to 1000 UTC 24 June 2021
Forecast type: FROM: standard forecast or significant change
Winds: variable direction winds at 6 MPH (5 knots; 2.6 m/s)
Visibility: 6 or more miles (10+ km)
Ceiling: at least 12,000 feet AGL
Clouds: scattered clouds at 4000 feet AGL
Weather: no significant weather forecast for this period
Text: BECMG 2410/2412 24010KT
Forecast period: 1000 to 1700 UTC 24 June 2021
Forecast type: BECOMING: Conditions expected to become as follows by 1200 UTC 24 June 2021
Winds: from the WSW (240 degrees) at 12 MPH (10 knots; 5.1 m/s)
Visibility: 6 or more miles (10+ km)
Ceiling: at least 12,000 feet AGL
Clouds: scattered clouds at 4000 feet AGL
Weather: no significant weather forecast for this period
Text: BECMG 2417/2419 VRB05KT
Forecast period: 1700 UTC 24 June 2021 to 0600 UTC 25 June 2021
Forecast type: BECOMING: Conditions expected to become as follows by 1900 UTC 24 June 2021
Winds: variable direction winds at 6 MPH (5 knots; 2.6 m/s)
Visibility: 6 or more miles (10+ km)
Ceiling: at least 12,000 feet AGL
Clouds: scattered clouds at 4000 feet AGL
Weather: no significant weather forecast for this period